Time;durP1;ratioP1;P1;durP2;ratioP2;P2;SDS_P1;SDS_P2;PMS_P1;PMS_P2;Temp;Humidity;BMP_temperature;BMP_pressure;BME280_temperature;BME280_humidity;BME280_pressure;Samples;Min_cycle;Max_cycle;Signal;HPM_P1;HPM_P2
2022/04/09 00:00:07;;;;;;;2.75;1.58;;;12.00;99.90;;;;;;4917969;29;20043;-83
2022/04/09 00:02:33;;;;;;;1.65;1.00;;;11.90;99.90;;;;;;4914533;29;20028;-84
2022/04/09 00:04:59;;;;;;;3.67;1.58;;;12.00;99.90;;;;;;4904496;29;20025;-85
2022/04/09 00:07:25;;;;;;;2.88;1.30;;;12.00;99.90;;;;;;4905490;29;20076;-84
2022/04/09 00:09:50;;;;;;;2.78;1.33;;;12.00;99.90;;;;;;4907952;29;20032;-84
2022/04/09 00:12:16;;;;;;;2.83;1.52;;;11.90;99.90;;;;;;4907593;29;20044;-84
2022/04/09 00:14:42;;;;;;;3.47;1.38;;;11.90;99.90;;;;;;4909179;29;20049;-84
2022/04/09 00:17:09;;;;;;;6.70;1.58;;;11.90;99.90;;;;;;4913456;29;20139;-83
2022/04/09 00:19:36;;;;;;;3.05;1.55;;;11.90;99.90;;;;;;4916965;29;20032;-83
2022/04/09 00:22:03;;;;;;;2.78;1.30;;;11.90;99.90;;;;;;4918086;29;20114;-83
2022/04/09 00:24:29;;;;;;;6.30;1.15;;;11.90;99.90;;;;;;4920014;29;20040;-84
2022/04/09 00:26:54;;;;;;;2.30;1.10;;;11.90;99.90;;;;;;4919679;29;20041;-84
2022/04/09 00:29:20;;;;;;;2.25;1.48;;;11.90;99.90;;;;;;4917576;29;20060;-83
2022/04/09 00:31:46;;;;;;;2.92;1.40;;;11.90;99.90;;;;;;4915497;29;20041;-84
2022/04/09 00:34:12;;;;;;;1.50;1.02;;;12.00;99.90;;;;;;4914782;29;20041;-84
2022/04/09 00:36:39;;;;;;;2.53;1.20;;;12.00;99.90;;;;;;4916374;29;20040;-85
2022/04/09 00:39:05;;;;;;;3.95;1.30;;;12.00;99.90;;;;;;4919506;29;20024;-82
2022/04/09 00:41:31;;;;;;;3.10;1.38;;;12.00;99.90;;;;;;4918527;29;20028;-84
2022/04/09 00:43:57;;;;;;;1.98;1.30;;;12.00;99.90;;;;;;4924292;29;20045;-84
2022/04/09 00:46:22;;;;;;;4.30;1.70;;;12.00;99.90;;;;;;4923378;29;20020;-84
2022/04/09 00:48:49;;;;;;;3.50;2.08;;;12.00;99.90;;;;;;4924269;29;20028;-84
2022/04/09 00:51:15;;;;;;;2.70;1.90;;;11.90;99.90;;;;;;4923767;29;20020;-84
2022/04/09 00:53:44;;;;;;;3.05;2.03;;;11.90;99.90;;;;;;4922280;29;20063;-84
2022/04/09 00:56:13;;;;;;;3.30;1.65;;;11.90;99.90;;;;;;4921427;29;20036;-84
2022/04/09 00:58:46;;;;;;;1.98;1.05;;;11.80;99.90;;;;;;4922031;29;20057;-83
2022/04/09 01:01:13;;;;;;;1.73;1.00;;;11.80;99.90;;;;;;4916553;29;20048;-82
2022/04/09 01:03:39;;;;;;;1.77;1.00;;;11.80;99.90;;;;;;4911676;29;20029;-82
2022/04/09 01:06:09;;;;;;;0.88;0.80;;;11.90;99.90;;;;;;4911173;29;20037;-83
2022/04/09 01:08:35;;;;;;;1.25;0.80;;;11.90;99.90;;;;;;4911050;29;20060;-81
2022/04/09 01:11:01;;;;;;;1.92;1.23;;;12.00;99.90;;;;;;4913704;29;20052;-82
2022/04/09 01:13:29;;;;;;;2.03;0.95;;;12.00;99.90;;;;;;4916571;29;20033;-84
2022/04/09 01:15:55;;;;;;;2.22;0.90;;;11.90;99.90;;;;;;4919763;29;20024;-83
2022/04/09 01:18:21;;;;;;;2.22;1.00;;;12.00;99.90;;;;;;4921953;29;20017;-83
2022/04/09 01:21:02;;;;;;;1.58;0.85;;;12.00;99.90;;;;;;4923260;29;20052;-83
2022/04/09 01:23:29;;;;;;;2.80;0.80;;;12.00;99.90;;;;;;4923197;29;20040;-85
2022/04/09 01:25:57;;;;;;;1.48;0.88;;;12.00;99.90;;;;;;4923796;29;20064;-84
2022/04/09 01:28:24;;;;;;;3.05;1.17;;;12.10;99.90;;;;;;4922967;29;20032;-84
2022/04/09 01:30:50;;;;;;;5.60;0.90;;;12.10;99.90;;;;;;4923301;29;20047;-83
2022/04/09 01:33:18;;;;;;;2.88;1.00;;;12.10;99.90;;;;;;4923230;29;20021;-84
2022/04/09 01:35:44;;;;;;;5.35;1.40;;;12.10;99.90;;;;;;4923851;29;20024;-83
2022/04/09 01:38:11;;;;;;;3.08;1.30;;;12.10;99.90;;;;;;4923116;29;20057;-82
2022/04/09 01:40:37;;;;;;;1.23;0.80;;;12.10;99.90;;;;;;4918563;29;20033;-83
2022/04/09 01:43:03;;;;;;;2.15;0.80;;;12.10;99.90;;;;;;4916799;29;20032;-83
2022/04/09 01:45:29;;;;;;;2.80;1.30;;;12.00;99.90;;;;;;4915568;29;20028;-82
2022/04/09 01:47:59;;;;;;;2.17;0.82;;;12.10;99.90;;;;;;4920574;29;20043;-83
2022/04/09 01:50:29;;;;;;;1.23;0.90;;;12.00;99.90;;;;;;4905256;29;20032;-83
2022/04/09 01:52:56;;;;;;;1.42;1.00;;;12.00;99.90;;;;;;4922882;29;20064;-83
2022/04/09 01:55:22;;;;;;;2.42;1.02;;;12.00;99.90;;;;;;4923020;29;20017;-83
2022/04/09 01:57:49;;;;;;;6.32;1.13;;;12.00;99.90;;;;;;4920416;29;20040;-84
2022/04/09 02:00:17;;;;;;;1.77;1.05;;;11.90;99.90;;;;;;4920709;29;20101;-83
2022/04/09 02:02:47;;;;;;;0.98;0.82;;;11.90;99.90;;;;;;4920893;29;20028;-85
2022/04/09 02:05:14;;;;;;;2.88;1.10;;;11.90;99.90;;;;;;4921881;29;20025;-83
2022/04/09 02:07:43;;;;;;;3.15;1.38;;;11.80;99.90;;;;;;4906587;29;20037;-82
2022/04/09 02:10:10;;;;;;;2.40;1.20;;;11.80;99.90;;;;;;4922255;29;20028;-82
2022/04/09 02:12:40;;;;;;;3.15;1.40;;;11.80;99.90;;;;;;4922009;29;20105;-82
2022/04/09 02:15:08;;;;;;;4.15;1.13;;;11.70;99.90;;;;;;4921955;29;20100;-82
2022/04/09 02:17:35;;;;;;;1.33;0.90;;;11.70;99.90;;;;;;4922348;29;20023;-83
2022/04/09 02:20:03;;;;;;;2.20;1.23;;;11.60;99.90;;;;;;4922115;29;20033;-83
2022/04/09 02:22:40;;;;;;;4.88;1.33;;;11.60;99.90;;;;;;4922810;29;20020;-83
2022/04/09 02:25:08;;;;;;;2.60;1.13;;;11.50;99.90;;;;;;4920030;29;20056;-83
2022/04/09 02:27:34;;;;;;;2.22;1.17;;;11.50;99.90;;;;;;4920853;29;20076;-83
2022/04/09 02:30:04;;;;;;;2.47;1.30;;;11.40;99.90;;;;;;4917728;29;20028;-84
2022/04/09 02:32:32;;;;;;;2.08;1.20;;;11.40;99.90;;;;;;4916372;29;20050;-83
2022/04/09 02:34:58;;;;;;;1.55;0.95;;;11.40;99.90;;;;;;4918526;29;20112;-83
2022/04/09 02:37:26;;;;;;;2.35;1.20;;;11.40;99.90;;;;;;4921108;29;20048;-83
2022/04/09 02:39:53;;;;;;;2.78;1.95;;;11.30;99.90;;;;;;4921483;29;20029;-83
2022/04/09 02:42:19;;;;;;;2.35;1.27;;;11.40;99.90;;;;;;4921656;29;20037;-84
2022/04/09 02:44:47;;;;;;;2.83;1.08;;;11.40;99.90;;;;;;4921507;29;20021;-83
2022/04/09 02:47:13;;;;;;;2.50;0.93;;;11.40;99.90;;;;;;4922297;29;20035;-83
2022/04/09 02:49:39;;;;;;;1.40;1.00;;;11.40;99.90;;;;;;4921734;29;20097;-81
2022/04/09 02:52:07;;;;;;;3.88;0.90;;;11.50;99.90;;;;;;4921510;29;20035;-84
2022/04/09 02:54:33;;;;;;;2.17;1.10;;;11.50;99.90;;;;;;4921412;29;20020;-84
2022/04/09 02:56:59;;;;;;;1.70;1.25;;;11.50;99.90;;;;;;4905819;29;20100;-85
2022/04/09 02:59:30;;;;;;;3.88;1.23;;;11.50;99.90;;;;;;4921283;29;20076;-86
2022/04/09 03:01:58;;;;;;;2.00;1.40;;;11.50;99.90;;;;;;4922033;29;20028;-83
2022/04/09 03:04:24;;;;;;;5.85;1.60;;;11.50;99.90;;;;;;4921523;29;20021;-84
2022/04/09 03:06:50;;;;;;;5.40;1.42;;;11.50;99.90;;;;;;4921467;29;20044;-83
2022/04/09 03:09:16;;;;;;;2.10;1.23;;;11.50;99.90;;;;;;4921202;29;20021;-83
2022/04/09 03:11:41;;;;;;;2.03;1.17;;;11.40;99.90;;;;;;4921939;29;20049;-84
2022/04/09 03:14:07;;;;;;;1.90;1.20;;;11.40;99.90;;;;;;4921927;29;20053;-81
2022/04/09 03:16:33;;;;;;;1.88;1.30;;;11.30;99.90;;;;;;4920625;29;20040;-83
2022/04/09 03:19:00;;;;;;;3.42;1.52;;;11.20;99.90;;;;;;4920345;29;20020;-83
2022/04/09 03:21:26;;;;;;;4.00;1.45;;;11.20;99.90;;;;;;4917804;29;20076;-83
2022/04/09 03:23:52;;;;;;;3.20;1.60;;;11.20;99.90;;;;;;4895818;29;20029;-83
2022/04/09 03:26:19;;;;;;;3.38;1.52;;;11.20;99.90;;;;;;4909135;29;20063;-83
2022/04/09 03:28:52;;;;;;;1.83;1.48;;;11.10;99.90;;;;;;4913342;29;20024;-82
2022/04/09 03:31:18;;;;;;;2.13;1.48;;;11.10;99.90;;;;;;4920496;29;20033;-83
2022/04/09 03:33:47;;;;;;;4.13;1.70;;;11.10;99.90;;;;;;4912193;29;20043;-81
2022/04/09 03:36:19;;;;;;;7.22;2.35;;;11.10;99.90;;;;;;4910828;29;20033;-83
2022/04/09 03:38:45;;;;;;;5.82;1.75;;;11.00;99.90;;;;;;4895983;29;20029;-82
2022/04/09 03:41:11;;;;;;;3.17;1.73;;;11.00;99.90;;;;;;4910538;29;20043;-83
2022/04/09 03:44:01;;;;;;;3.15;2.00;;;11.00;99.90;;;;;;4893525;29;20033;-83
2022/04/09 03:46:32;;;;;;;8.15;2.25;;;11.00;99.90;;;;;;4908839;29;20045;-83
2022/04/09 03:49:02;;;;;;;4.13;1.77;;;11.00;99.90;;;;;;4909799;29;20386;-84
2022/04/09 03:51:29;;;;;;;2.53;1.67;;;11.00;99.90;;;;;;4909709;29;20068;-82
2022/04/09 03:53:56;;;;;;;3.53;1.80;;;11.00;99.90;;;;;;4902629;29;20028;-83
2022/04/09 03:56:24;;;;;;;4.22;2.10;;;11.00;99.90;;;;;;4917296;29;20032;-82
2022/04/09 03:58:51;;;;;;;5.13;2.03;;;11.00;99.90;;;;;;4917875;29;20096;-83
2022/04/09 04:01:24;;;;;;;4.47;2.30;;;11.00;99.90;;;;;;4920846;29;20029;-83
2022/04/09 04:03:51;;;;;;;6.85;2.28;;;11.00;99.90;;;;;;4920991;29;20024;-83
2022/04/09 04:06:18;;;;;;;9.18;1.80;;;11.10;99.90;;;;;;4921177;29;20032;-83
2022/04/09 04:08:44;;;;;;;6.15;2.05;;;11.10;99.90;;;;;;4923690;29;20108;-83
2022/04/09 04:11:14;;;;;;;3.53;1.85;;;11.10;99.90;;;;;;4919527;29;20096;-82
2022/04/09 04:13:41;;;;;;;5.22;1.90;;;11.20;99.90;;;;;;4914765;29;20032;-83
2022/04/09 04:16:09;;;;;;;5.10;2.00;;;11.20;99.90;;;;;;4900124;29;20028;-83
2022/04/09 04:18:39;;;;;;;3.60;1.85;;;11.20;99.90;;;;;;4898364;29;20041;-83
2022/04/09 04:21:05;;;;;;;3.35;2.08;;;11.20;99.90;;;;;;4912608;29;20457;-82
2022/04/09 04:23:31;;;;;;;3.00;1.77;;;11.20;99.90;;;;;;4905746;29;20051;-84
2022/04/09 04:26:07;;;;;;;6.53;1.42;;;11.30;99.90;;;;;;4891235;29;20421;-83
2022/04/09 04:28:34;;;;;;;2.53;1.75;;;11.30;99.90;;;;;;4905679;29;20036;-84
2022/04/09 04:31:00;;;;;;;3.28;1.40;;;11.20;99.90;;;;;;4905969;29;20028;-85
2022/04/09 04:33:26;;;;;;;4.53;1.58;;;11.20;99.90;;;;;;4894081;29;20060;-84
2022/04/09 04:35:56;;;;;;;3.15;1.23;;;11.20;99.90;;;;;;4926673;23;20048;-82
2022/04/09 04:38:25;;;;;;;6.15;1.50;;;11.10;99.90;;;;;;4903828;29;20052;-83
2022/04/09 04:40:55;;;;;;;2.28;1.40;;;11.10;99.90;;;;;;4903681;29;20028;-82
2022/04/09 04:43:25;;;;;;;2.85;1.17;;;11.10;99.90;;;;;;4904273;29;20040;-81
2022/04/09 04:45:55;;;;;;;8.57;1.30;;;11.20;99.90;;;;;;4903670;29;20048;-83
2022/04/09 04:48:21;;;;;;;3.35;1.23;;;11.10;99.90;;;;;;4912603;29;20032;-84
2022/04/09 04:50:48;;;;;;;1.90;1.00;;;11.10;99.90;;;;;;4905094;29;20033;-83
2022/04/09 04:53:14;;;;;;;1.85;1.10;;;11.10;99.90;;;;;;4904089;29;20033;-85
2022/04/09 04:55:46;;;;;;;3.13;1.30;;;11.10;99.90;;;;;;4904889;29;20096;-82
2022/04/09 04:58:12;;;;;;;3.67;1.58;;;11.20;99.90;;;;;;4908794;29;20121;-83
2022/04/09 05:00:50;;;;;;;1.90;0.93;;;11.20;99.90;;;;;;4912653;29;20029;-83
2022/04/09 05:03:17;;;;;;;4.45;1.10;;;11.30;99.90;;;;;;4915736;29;20035;-84
2022/04/09 05:06:10;;;;;;;2.25;0.63;;;11.40;99.90;;;;;;4917471;29;20027;-83
2022/04/09 05:08:38;;;;;;;1.88;0.98;;;11.50;99.90;;;;;;4918791;29;20109;-84
2022/04/09 05:11:05;;;;;;;1.13;0.88;;;11.50;99.90;;;;;;4921962;29;20037;-83
2022/04/09 05:13:34;;;;;;;1.58;0.80;;;11.60;99.90;;;;;;4922144;29;20080;-81
2022/04/09 05:16:01;;;;;;;0.93;0.70;;;11.60;99.90;;;;;;4912087;29;20048;-79
2022/04/09 05:18:32;;;;;;;2.63;0.85;;;11.70;99.90;;;;;;4913412;29;20088;-80
2022/04/09 05:20:58;;;;;;;1.98;0.90;;;11.70;99.90;;;;;;4922784;29;20044;-84
2022/04/09 05:23:24;;;;;;;3.20;1.05;;;11.80;99.90;;;;;;4905532;29;20020;-82
2022/04/09 05:25:50;;;;;;;4.97;1.05;;;11.80;99.90;;;;;;4927692;29;20048;-81
2022/04/09 05:28:17;;;;;;;1.55;0.82;;;11.90;99.90;;;;;;4927957;29;20005;-80
2022/04/09 05:30:49;;;;;;;1.48;0.90;;;11.90;99.90;;;;;;4930993;29;20012;-81
2022/04/09 05:33:15;;;;;;;1.17;0.82;;;12.00;99.90;;;;;;4916808;29;20033;-83
2022/04/09 05:35:47;;;;;;;4.45;1.10;;;12.00;99.90;;;;;;4905904;29;20044;-80
2022/04/09 05:38:13;;;;;;;1.13;0.70;;;12.10;99.90;;;;;;4891174;29;20036;-84
2022/04/09 05:40:39;;;;;;;4.45;0.80;;;12.20;99.90;;;;;;4888908;29;20469;-81
2022/04/09 05:43:18;;;;;;;2.88;0.90;;;12.30;99.90;;;;;;4905043;29;20024;-83
2022/04/09 05:45:47;;;;;;;4.10;1.10;;;12.30;99.90;;;;;;4903744;29;20025;-82
2022/04/09 05:48:15;;;;;;;0.63;0.50;;;12.30;99.90;;;;;;4904085;29;20028;-82
2022/04/09 05:50:49;;;;;;;3.05;0.63;;;12.30;99.90;;;;;;4901650;29;20032;-83
2022/04/09 05:53:16;;;;;;;1.73;0.65;;;12.30;99.90;;;;;;4909245;29;20036;-83
2022/04/09 05:55:42;;;;;;;1.13;0.57;;;12.20;99.90;;;;;;4912995;29;20032;-81
2022/04/09 05:58:09;;;;;;;0.80;0.50;;;12.00;99.90;;;;;;4912248;29;20029;-84
2022/04/09 06:00:38;;;;;;;3.83;0.60;;;11.70;99.90;;;;;;4905179;29;20052;-80
2022/04/09 06:03:17;;;;;;;3.50;0.88;;;11.50;99.90;;;;;;4906096;29;20036;-81
2022/04/09 06:05:43;;;;;;;2.63;0.70;;;11.10;99.90;;;;;;4905222;29;20033;-82
2022/04/09 06:08:19;;;;;;;0.80;0.80;;;10.80;99.90;;;;;;4905528;29;20173;-84
2022/04/09 06:10:46;;;;;;;5.93;0.82;;;10.70;99.90;;;;;;4911592;29;20028;-82
2022/04/09 06:13:13;;;;;;;1.20;0.65;;;10.50;99.90;;;;;;4915626;29;20028;-83
2022/04/09 06:15:40;;;;;;;3.38;0.68;;;10.40;99.90;;;;;;4914448;29;20463;-81
2022/04/09 06:18:12;;;;;;;1.75;0.40;;;10.10;99.90;;;;;;4910613;29;20572;-81
2022/04/09 06:20:38;;;;;;;0.82;0.40;;;9.90;99.90;;;;;;4917703;29;20040;-82
2022/04/09 06:23:08;;;;;;;1.15;0.52;;;9.80;99.90;;;;;;4918400;29;20019;-81
2022/04/09 06:25:35;;;;;;;1.02;0.22;;;9.70;99.90;;;;;;4919063;29;20045;-81
2022/04/09 06:28:02;;;;;;;0.47;0.40;;;9.30;99.90;;;;;;4908233;29;20027;-83
2022/04/09 06:30:30;;;;;;;1.00;0.40;;;9.00;99.90;;;;;;4908357;29;20039;-80
2022/04/09 06:33:03;;;;;;;6.43;0.70;;;8.80;99.90;;;;;;4917547;29;20020;-82
2022/04/09 06:35:31;;;;;;;1.15;0.52;;;8.60;99.90;;;;;;4918351;29;20047;-82
2022/04/09 06:37:58;;;;;;;1.02;0.75;;;8.40;99.90;;;;;;4912074;29;20036;-82
2022/04/09 06:40:26;;;;;;;1.88;0.68;;;8.20;99.90;;;;;;4909335;29;20039;-84
2022/04/09 06:42:52;;;;;;;2.60;0.60;;;8.20;99.90;;;;;;4908282;29;20024;-83
2022/04/09 06:45:38;;;;;;;1.20;0.63;;;8.10;99.90;;;;;;4913728;29;20056;-82
2022/04/09 06:48:38;;;;;;;1.02;0.88;;;8.00;99.90;;;;;;4900435;29;20040;-83
2022/04/09 06:51:22;;;;;;;1.60;1.10;;;8.00;99.90;;;;;;4916238;29;20043;-81
2022/04/09 06:53:51;;;;;;;1.10;1.02;;;7.90;99.90;;;;;;4916102;29;20044;-84
2022/04/09 06:56:18;;;;;;;1.65;1.42;;;7.90;99.90;;;;;;4915966;29;20050;-83
2022/04/09 06:58:44;;;;;;;1.65;1.52;;;7.80;99.90;;;;;;4914946;29;20032;-85
2022/04/09 07:01:10;;;;;;;2.05;1.85;;;7.70;99.90;;;;;;4900267;29;20043;-85
2022/04/09 07:03:40;;;;;;;2.38;2.17;;;7.70;99.90;;;;;;4918189;29;20013;-82
2022/04/09 07:06:05;;;;;;;4.13;2.17;;;7.70;99.90;;;;;;4912857;29;20048;-86
2022/04/09 07:08:31;;;;;;;4.00;2.65;;;7.70;99.90;;;;;;4915889;29;20089;-83
2022/04/09 07:10:58;;;;;;;2.92;2.63;;;7.60;99.90;;;;;;4915003;29;20020;-84
2022/04/09 07:13:28;;;;;;;5.13;3.28;;;7.50;99.90;;;;;;4913649;29;20111;-85
2022/04/09 07:15:55;;;;;;;7.18;3.70;;;7.50;99.90;;;;;;4909518;29;20059;-85
2022/04/09 07:18:25;;;;;;;7.22;4.10;;;7.50;99.90;;;;;;4894392;29;20040;-85
2022/04/09 07:20:51;;;;;;;5.43;4.20;;;7.50;99.90;;;;;;4906054;29;20450;-88
2022/04/09 07:23:17;;;;;;;7.03;4.78;;;7.50;99.90;;;;;;4890384;29;20088;-85
2022/04/09 07:25:43;;;;;;;7.93;4.47;;;7.50;99.90;;;;;;4908158;29;20079;-83
2022/04/09 07:28:09;;;;;;;4.55;3.65;;;7.60;99.90;;;;;;4900104;29;20164;-83
2022/04/09 07:30:35;;;;;;;5.43;4.10;;;7.60;99.90;;;;;;4900656;29;20555;-85
2022/04/09 07:33:02;;;;;;;4.10;3.65;;;7.60;99.90;;;;;;4902605;29;20481;-84
2022/04/09 07:35:28;;;;;;;5.50;3.20;;;7.60;99.90;;;;;;4902353;29;20047;-83
2022/04/09 07:37:55;;;;;;;5.78;3.80;;;7.50;99.90;;;;;;4900524;29;20032;-84
2022/04/09 07:40:29;;;;;;;4.38;3.08;;;7.60;99.90;;;;;;4902233;29;20071;-86
2022/04/09 07:42:57;;;;;;;4.13;2.90;;;7.70;99.90;;;;;;4914569;29;20349;-85
2022/04/09 07:45:24;;;;;;;3.83;2.40;;;7.80;99.90;;;;;;4918566;29;20456;-85
2022/04/09 07:47:55;;;;;;;3.33;2.50;;;7.80;99.90;;;;;;4920083;29;20091;-82
2022/04/09 07:50:21;;;;;;;4.25;2.25;;;7.80;99.90;;;;;;4919383;29;20029;-84
2022/04/09 07:52:47;;;;;;;4.95;2.17;;;7.90;99.90;;;;;;4913511;29;20031;-82
2022/04/09 07:55:16;;;;;;;9.38;2.17;;;7.90;99.90;;;;;;4910225;29;20040;-82
2022/04/09 07:57:47;;;;;;;5.85;1.70;;;8.00;99.90;;;;;;4928120;29;20024;-83
2022/04/09 08:00:16;;;;;;;3.38;1.75;;;7.90;99.90;;;;;;4929707;29;20476;-85
2022/04/09 08:02:43;;;;;;;3.25;1.63;;;8.00;99.90;;;;;;4928025;29;20028;-84
2022/04/09 08:05:10;;;;;;;2.00;1.67;;;8.00;99.90;;;;;;4929019;29;20020;-84
2022/04/09 08:07:40;;;;;;;4.78;1.80;;;8.10;99.90;;;;;;4928649;29;20110;-85
2022/04/09 08:10:07;;;;;;;2.80;1.83;;;8.20;99.90;;;;;;4927740;29;20028;-87
2022/04/09 08:12:34;;;;;;;4.82;1.95;;;8.30;99.90;;;;;;4927505;29;20042;-85
2022/04/09 08:15:00;;;;;;;4.80;2.38;;;8.30;99.90;;;;;;4931555;29;20046;-85
2022/04/09 08:17:26;;;;;;;3.97;1.67;;;8.30;99.90;;;;;;4927856;29;20111;-84
2022/04/09 08:19:52;;;;;;;6.38;2.10;;;8.40;99.90;;;;;;4928162;29;20084;-82
2022/04/09 08:22:18;;;;;;;3.13;2.25;;;8.40;99.90;;;;;;4929263;29;20496;-85
2022/04/09 08:24:45;;;;;;;2.20;2.00;;;8.40;99.90;;;;;;4929665;29;20024;-85
2022/04/09 08:27:11;;;;;;;2.90;2.30;;;8.20;99.90;;;;;;4928627;29;20029;-84
2022/04/09 08:29:37;;;;;;;3.60;2.17;;;8.20;99.90;;;;;;4932103;29;20035;-81
2022/04/09 08:32:04;;;;;;;5.97;3.05;;;8.30;99.90;;;;;;4929725;29;20032;-83
2022/04/09 08:34:33;;;;;;;5.10;3.42;;;8.40;99.90;;;;;;4926722;29;20040;-82
2022/04/09 08:36:59;;;;;;;4.63;3.65;;;8.50;99.90;;;;;;4929691;29;20043;-82
2022/04/09 08:39:25;;;;;;;6.65;3.60;;;8.40;99.90;;;;;;4929860;29;20024;-83
2022/04/09 08:41:53;;;;;;;6.57;4.15;;;8.50;99.90;;;;;;4928411;29;20115;-84
2022/04/09 08:44:19;;;;;;;5.38;3.95;;;8.60;99.90;;;;;;4931704;29;20035;-85
2022/04/09 08:46:47;;;;;;;8.20;4.72;;;8.70;99.90;;;;;;4931248;29;20020;-85
2022/04/09 08:49:13;;;;;;;5.72;4.53;;;8.60;99.90;;;;;;4916537;29;20074;-85
2022/04/09 08:51:39;;;;;;;7.63;4.18;;;8.60;99.90;;;;;;4930870;29;20528;-83
2022/04/09 08:54:07;;;;;;;6.25;4.25;;;8.70;99.90;;;;;;4930728;29;20454;-83
2022/04/09 08:56:37;;;;;;;7.13;4.82;;;8.90;99.90;;;;;;4933671;29;20066;-84
2022/04/09 08:59:03;;;;;;;5.78;4.25;;;8.90;99.90;;;;;;4940958;29;20032;-84
2022/04/09 09:01:30;;;;;;;7.45;4.57;;;9.00;99.90;;;;;;4941723;29;20108;-82
2022/04/09 09:03:57;;;;;;;13.88;4.93;;;9.10;99.90;;;;;;4941161;29;20031;-84
2022/04/09 09:06:27;;;;;;;8.48;4.68;;;9.10;99.90;;;;;;4937754;29;20044;-84
2022/04/09 09:09:00;;;;;;;7.95;5.15;;;9.20;99.90;;;;;;4936568;29;20032;-84
2022/04/09 09:11:27;;;;;;;7.22;5.32;;;9.10;99.90;;;;;;4935816;29;20096;-84
2022/04/09 09:13:54;;;;;;;9.48;5.25;;;9.20;99.90;;;;;;4932619;29;20028;-82
2022/04/09 09:16:30;;;;;;;6.68;5.00;;;9.30;99.90;;;;;;4932883;29;20035;-84
2022/04/09 09:18:58;;;;;;;8.95;5.32;;;9.30;99.90;;;;;;4930415;29;20132;-79
2022/04/09 09:21:27;;;;;;;9.35;5.20;;;9.30;99.90;;;;;;4927884;29;20048;-83
2022/04/09 09:24:15;;;;;;;9.02;6.05;;;9.20;99.90;;;;;;4911640;29;20111;-82
2022/04/09 09:26:43;;;;;;;10.25;6.13;;;9.00;99.90;;;;;;4933671;29;20028;-82
2022/04/09 09:29:12;;;;;;;12.27;6.25;;;8.90;99.90;;;;;;4934341;29;20158;-82
2022/04/09 09:31:43;;;;;;;11.30;6.13;;;8.70;99.90;;;;;;4934533;29;20060;-84
2022/04/09 09:34:12;;;;;;;9.13;5.80;;;8.90;99.90;;;;;;4933163;29;20036;-82
2022/04/09 09:36:40;;;;;;;9.93;6.07;;;8.80;99.90;;;;;;4934902;29;20040;-83
2022/04/09 09:39:08;;;;;;;8.25;5.20;;;8.80;99.90;;;;;;4933548;29;20040;-86
2022/04/09 09:41:36;;;;;;;6.53;5.13;;;8.70;99.90;;;;;;4934045;29;20024;-84
2022/04/09 09:44:03;;;;;;;8.00;4.78;;;8.70;99.90;;;;;;4932207;29;20036;-84
2022/04/09 09:46:29;;;;;;;8.73;4.50;;;8.60;99.90;;;;;;4929036;29;20031;-85
2022/04/09 09:48:55;;;;;;;5.97;4.00;;;8.40;99.90;;;;;;4915216;29;20563;-84
2022/04/09 09:51:25;;;;;;;5.50;4.15;;;8.40;99.90;;;;;;4928330;29;20029;-85
2022/04/09 09:54:04;;;;;;;5.57;4.18;;;8.40;99.90;;;;;;4930560;29;20052;-83
2022/04/09 09:56:39;;;;;;;11.10;4.13;;;8.40;99.90;;;;;;4928952;29;20051;-82
2022/04/09 09:59:06;;;;;;;5.72;4.13;;;8.50;99.90;;;;;;4930666;29;20099;-83
2022/04/09 10:01:41;;;;;;;4.25;3.75;;;8.60;99.90;;;;;;4930976;29;20031;-83
2022/04/09 10:04:08;;;;;;;7.65;4.60;;;8.50;99.90;;;;;;4930167;29;20032;-84
2022/04/09 10:06:36;;;;;;;9.05;4.72;;;8.60;99.90;;;;;;4928422;29;20421;-84
2022/04/09 10:09:05;;;;;;;6.05;4.20;;;8.60;99.90;;;;;;4914023;29;20032;-85
2022/04/09 10:11:36;;;;;;;8.32;4.78;;;8.60;99.90;;;;;;4931059;29;20032;-83
2022/04/09 10:14:03;;;;;;;6.43;4.70;;;8.50;99.90;;;;;;4913987;29;20028;-84
2022/04/09 10:16:34;;;;;;;5.97;4.40;;;8.70;99.90;;;;;;4932217;29;20032;-83
2022/04/09 10:19:02;;;;;;;8.00;4.75;;;8.80;99.90;;;;;;4933488;29;20072;-83
2022/04/09 10:21:29;;;;;;;6.65;4.22;;;8.80;99.90;;;;;;4930106;29;20090;-83
2022/04/09 10:24:00;;;;;;;6.18;4.72;;;8.80;99.90;;;;;;4932534;29;20040;-82
2022/04/09 10:26:28;;;;;;;7.43;5.05;;;8.90;99.90;;;;;;4932739;29;20044;-82
2022/04/09 10:29:04;;;;;;;7.68;5.00;;;8.90;99.90;;;;;;4931473;29;20060;-85
2022/04/09 10:31:30;;;;;;;6.90;5.45;;;8.80;99.90;;;;;;4931411;29;20089;-84
2022/04/09 10:34:00;;;;;;;8.35;5.65;;;8.80;99.90;;;;;;4929307;29;20408;-81
2022/04/09 10:36:45;;;;;;;8.20;5.35;;;8.70;99.90;;;;;;4937933;23;20052;-85
2022/04/09 10:39:25;;;;;;;9.55;5.45;;;8.80;99.90;;;;;;4915468;29;20020;-84
2022/04/09 10:41:54;;;;;;;17.55;5.43;;;8.90;99.90;;;;;;4918228;29;20036;-84
2022/04/09 10:44:44;;;;;;;10.88;5.30;;;8.90;99.90;;;;;;4925718;29;20024;-85
2022/04/09 10:47:13;;;;;;;11.43;5.13;;;9.00;99.90;;;;;;4918805;29;20017;-85
2022/04/09 10:49:38;;;;;;;11.10;6.00;;;9.20;99.90;;;;;;4924480;29;20012;-84
2022/04/09 10:52:14;;;;;;;10.70;5.65;;;9.30;99.90;;;;;;4926057;29;20122;-84
2022/04/09 10:55:08;;;;;;;7.50;5.28;;;9.50;99.90;;;;;;4904692;29;20039;-84
2022/04/09 10:57:45;;;;;;;8.10;5.03;;;9.60;99.90;;;;;;4920283;29;20036;-84
2022/04/09 11:00:23;;;;;;;12.63;5.20;;;9.60;99.90;;;;;;4919562;29;20029;-83
2022/04/09 11:03:10;;;;;;;12.43;4.93;;;9.70;99.90;;;;;;4917547;29;20036;-85
2022/04/09 11:05:39;;;;;;;6.28;4.80;;;9.50;99.90;;;;;;4919161;29;20091;-85
2022/04/09 11:08:08;;;;;;;13.90;5.25;;;9.60;99.90;;;;;;4936790;29;20020;-83
2022/04/09 11:10:34;;;;;;;8.75;4.70;;;9.50;99.90;;;;;;4938436;29;20028;-84
2022/04/09 11:13:01;;;;;;;7.47;5.10;;;9.40;99.90;;;;;;4925637;29;20046;-84
2022/04/09 11:15:28;;;;;;;9.30;4.95;;;9.50;99.90;;;;;;4934344;29;20088;-81
2022/04/09 11:18:02;;;;;;;7.30;4.45;;;9.40;99.90;;;;;;4931194;29;20030;-82
2022/04/09 11:20:33;;;;;;;9.60;4.32;;;9.40;99.90;;;;;;4930304;29;20025;-83
2022/04/09 11:23:14;;;;;;;10.88;4.65;;;9.40;99.90;;;;;;4925746;29;20052;-83
2022/04/09 11:25:42;;;;;;;12.20;4.32;;;9.50;99.90;;;;;;4924957;29;20044;-83
2022/04/09 11:28:17;;;;;;;8.63;4.00;;;9.70;99.90;;;;;;4924744;29;20016;-84
2022/04/09 11:30:59;;;;;;;8.32;3.78;;;9.80;99.20;;;;;;4925284;29;20040;-83
2022/04/09 11:33:25;;;;;;;5.93;3.95;;;9.70;98.50;;;;;;4925309;29;20087;-82
2022/04/09 11:35:51;;;;;;;6.55;3.67;;;9.60;98.70;;;;;;4924607;29;20058;-83
2022/04/09 11:38:17;;;;;;;6.93;4.05;;;9.60;98.80;;;;;;4924986;29;20065;-83
2022/04/09 11:40:46;;;;;;;4.97;3.65;;;9.60;98.60;;;;;;4924538;29;20045;-84
2022/04/09 11:43:14;;;;;;;10.80;4.13;;;9.60;98.50;;;;;;4924589;29;20073;-83
2022/04/09 11:45:40;;;;;;;5.82;3.72;;;9.50;98.50;;;;;;4923712;29;20092;-84
2022/04/09 11:48:06;;;;;;;8.05;3.13;;;9.50;98.30;;;;;;4924482;29;20091;-82
2022/04/09 11:50:39;;;;;;;6.35;3.63;;;9.50;98.10;;;;;;4924460;29;20013;-83
2022/04/09 11:53:16;;;;;;;7.15;3.70;;;9.50;98.20;;;;;;4922912;29;20039;-83
2022/04/09 11:55:43;;;;;;;8.32;3.72;;;9.60;98.00;;;;;;4924650;29;20058;-83
2022/04/09 11:58:11;;;;;;;7.53;3.67;;;9.60;98.10;;;;;;4923959;29;20068;-88
2022/04/09 12:00:41;;;;;;;7.05;3.78;;;9.70;98.10;;;;;;4924932;29;20053;-86
2022/04/09 12:03:08;;;;;;;8.65;3.85;;;9.70;98.10;;;;;;4924312;29;20025;-87
2022/04/09 12:05:51;;;;;;;10.30;3.90;;;9.70;98.00;;;;;;4924837;29;20081;-89
2022/04/09 12:08:18;;;;;;;10.10;3.85;;;9.80;97.80;;;;;;4924818;29;20024;-86
2022/04/09 12:10:57;;;;;;;6.78;3.88;;;9.80;97.90;;;;;;4924843;29;20073;-88
2022/04/09 12:13:35;;;;;;;5.68;3.35;;;9.90;97.00;;;;;;4925231;29;20052;-86
2022/04/09 12:16:14;;;;;;;5.82;2.75;;;10.00;97.10;;;;;;4924673;29;20048;-87
2022/04/09 12:18:40;;;;;;;5.47;3.05;;;10.10;96.90;;;;;;4925031;29;20052;-86
2022/04/09 12:21:23;;;;;;;5.72;3.10;;;10.10;96.60;;;;;;4924620;29;20065;-85
2022/04/09 12:24:05;;;;;;;7.10;3.85;;;10.10;96.20;;;;;;4924438;29;20108;-87
2022/04/09 12:26:32;;;;;;;6.45;3.00;;;10.10;95.90;;;;;;4923650;29;20055;-88
2022/04/09 12:29:12;;;;;;;6.55;3.35;;;10.20;95.90;;;;;;4924317;29;20069;-88
2022/04/09 12:31:42;;;;;;;5.30;2.50;;;10.30;95.90;;;;;;4924177;29;20024;-89
2022/04/09 12:34:09;;;;;;;7.95;2.90;;;10.60;95.30;;;;;;4923947;29;20020;-86
2022/04/09 12:36:38;;;;;;;4.78;2.60;;;10.80;95.30;;;;;;4922503;29;20043;-88
2022/04/09 12:39:24;;;;;;;5.75;3.30;;;11.00;94.90;;;;;;4922117;29;20088;-87
2022/04/09 12:41:50;;;;;;;6.68;2.90;;;11.20;94.50;;;;;;4906569;29;20036;-88
2022/04/09 12:44:29;;;;;;;8.55;3.28;;;11.20;94.60;;;;;;4923793;29;20025;-90
2022/04/09 12:46:56;;;;;;;6.90;2.72;;;11.20;94.40;;;;;;4926158;29;20049;-86
2022/04/09 12:49:35;;;;;;;4.57;2.80;;;11.10;94.30;;;;;;4923560;29;20017;-86
2022/04/09 12:52:03;;;;;;;5.80;2.20;;;11.10;94.00;;;;;;4922670;29;20031;-87
2022/04/09 12:54:31;;;;;;;6.18;2.75;;;11.00;94.30;;;;;;4923353;29;20024;-87
2022/04/09 12:57:08;;;;;;;4.57;2.17;;;11.00;94.10;;;;;;4922877;29;20074;-86
2022/04/09 12:59:35;;;;;;;4.05;2.10;;;11.10;94.00;;;;;;4922918;29;20036;-87